sensor_id;sensor_type;location;lat;lon;timestamp;pressure;altitude;pressure_sealevel;temperature;humidity
59104;BME280;51449;51.676;5.812;2023-04-09T00:02:10;102517.25;;;11.51;68.65
59104;BME280;51449;51.676;5.812;2023-04-09T00:04:42;102514.28;;;11.47;69.17
59104;BME280;51449;51.676;5.812;2023-04-09T00:07:14;102513.22;;;11.43;69.12
59104;BME280;51449;51.676;5.812;2023-04-09T00:09:45;102507.78;;;11.38;69.41
59104;BME280;51449;51.676;5.812;2023-04-09T00:12:17;102519.22;;;11.31;69.74
59104;BME280;51449;51.676;5.812;2023-04-09T00:14:54;102513.16;;;11.29;70.01
59104;BME280;51449;51.676;5.812;2023-04-09T00:17:26;102513.44;;;11.28;70.03
59104;BME280;51449;51.676;5.812;2023-04-09T00:19:57;102517.28;;;11.32;70.16
59104;BME280;51449;51.676;5.812;2023-04-09T00:22:29;102508.38;;;11.35;69.73
59104;BME280;51449;51.676;5.812;2023-04-09T00:25:01;102505.63;;;11.35;70.19
59104;BME280;51449;51.676;5.812;2023-04-09T00:27:32;102504.50;;;11.36;69.62
59104;BME280;51449;51.676;5.812;2023-04-09T00:30:05;102504.50;;;11.36;69.77
59104;BME280;51449;51.676;5.812;2023-04-09T00:32:37;102497.06;;;11.37;69.76
59104;BME280;51449;51.676;5.812;2023-04-09T00:35:09;102502.88;;;11.35;69.93
59104;BME280;51449;51.676;5.812;2023-04-09T00:37:40;102501.25;;;11.34;69.85
59104;BME280;51449;51.676;5.812;2023-04-09T00:40:12;102500.41;;;11.33;69.63
59104;BME280;51449;51.676;5.812;2023-04-09T00:42:44;102494.88;;;11.33;69.45
59104;BME280;51449;51.676;5.812;2023-04-09T00:45:16;102491.63;;;11.31;69.65
59104;BME280;51449;51.676;5.812;2023-04-09T00:47:48;102488.25;;;11.34;69.75
59104;BME280;51449;51.676;5.812;2023-04-09T00:50:20;102478.84;;;11.35;69.45
59104;BME280;51449;51.676;5.812;2023-04-09T00:52:52;102479.38;;;11.38;70.03
59104;BME280;51449;51.676;5.812;2023-04-09T00:55:24;102480.50;;;11.37;69.91
59104;BME280;51449;51.676;5.812;2023-04-09T00:57:56;102481.31;;;11.37;69.71
59104;BME280;51449;51.676;5.812;2023-04-09T01:00:27;102479.09;;;11.39;69.62
59104;BME280;51449;51.676;5.812;2023-04-09T01:02:59;102476.00;;;11.41;69.74
59104;BME280;51449;51.676;5.812;2023-04-09T01:05:50;102476.84;;;11.41;69.71
59104;BME280;51449;51.676;5.812;2023-04-09T01:12:25;102471.38;;;11.36;69.76
59104;BME280;51449;51.676;5.812;2023-04-09T01:15:14;102472.50;;;11.35;69.74
59104;BME280;51449;51.676;5.812;2023-04-09T01:17:59;102468.69;;;11.31;69.67
59104;BME280;51449;51.676;5.812;2023-04-09T01:20:52;102466.25;;;11.29;70.10
59104;BME280;51449;51.676;5.812;2023-04-09T01:23:46;102467.34;;;11.28;69.80
59104;BME280;51449;51.676;5.812;2023-04-09T01:27:06;102472.06;;;11.28;69.54
59104;BME280;51449;51.676;5.812;2023-04-09T01:29:55;102465.50;;;11.24;70.22
59104;BME280;51449;51.676;5.812;2023-04-09T01:32:28;102469.91;;;11.25;70.14
59104;BME280;51449;51.676;5.812;2023-04-09T01:35:03;102472.94;;;11.23;70.09
59104;BME280;51449;51.676;5.812;2023-04-09T01:37:37;102468.03;;;11.20;70.23
59104;BME280;51449;51.676;5.812;2023-04-09T01:40:10;102466.69;;;11.18;70.38
59104;BME280;51449;51.676;5.812;2023-04-09T01:42:43;102460.38;;;11.17;70.43
59104;BME280;51449;51.676;5.812;2023-04-09T01:45:18;102458.72;;;11.16;70.18
59104;BME280;51449;51.676;5.812;2023-04-09T01:47:51;102460.66;;;11.16;70.50
59104;BME280;51449;51.676;5.812;2023-04-09T01:50:25;102461.25;;;11.12;70.93
59104;BME280;51449;51.676;5.812;2023-04-09T01:52:59;102472.28;;;11.12;70.66
59104;BME280;51449;51.676;5.812;2023-04-09T01:55:31;102463.47;;;11.10;71.03
59104;BME280;51449;51.676;5.812;2023-04-09T01:58:03;102465.44;;;11.10;70.60
59104;BME280;51449;51.676;5.812;2023-04-09T02:00:38;102465.97;;;11.12;70.87
59104;BME280;51449;51.676;5.812;2023-04-09T02:03:17;102465.34;;;11.15;70.62
59104;BME280;51449;51.676;5.812;2023-04-09T02:06:03;102466.78;;;11.12;70.65
59104;BME280;51449;51.676;5.812;2023-04-09T02:08:46;102461.25;;;11.12;70.36
59104;BME280;51449;51.676;5.812;2023-04-09T02:11:20;102458.50;;;11.12;70.30
59104;BME280;51449;51.676;5.812;2023-04-09T02:13:55;102461.25;;;11.12;70.46
59104;BME280;51449;51.676;5.812;2023-04-09T02:16:28;102462.34;;;11.11;70.60
59104;BME280;51449;51.676;5.812;2023-04-09T02:19:02;102463.19;;;11.12;70.66
59104;BME280;51449;51.676;5.812;2023-04-09T02:21:34;102461.25;;;11.12;70.81
59104;BME280;51449;51.676;5.812;2023-04-09T02:24:06;102465.97;;;11.12;70.49
59104;BME280;51449;51.676;5.812;2023-04-09T02:26:37;102457.97;;;11.10;70.48
59104;BME280;51449;51.676;5.812;2023-04-09T02:29:09;102460.72;;;11.10;70.52
59104;BME280;51449;51.676;5.812;2023-04-09T02:31:41;102456.63;;;11.08;70.70
59104;BME280;51449;51.676;5.812;2023-04-09T02:34:12;102459.66;;;11.06;70.63
59104;BME280;51449;51.676;5.812;2023-04-09T02:36:44;102453.34;;;11.06;70.51
59104;BME280;51449;51.676;5.812;2023-04-09T02:39:16;102456.09;;;11.06;70.57
59104;BME280;51449;51.676;5.812;2023-04-09T02:41:47;102449.78;;;11.05;70.42
59104;BME280;51449;51.676;5.812;2023-04-09T02:44:19;102446.19;;;11.05;70.31
59104;BME280;51449;51.676;5.812;2023-04-09T02:46:51;102448.63;;;11.06;70.55
59104;BME280;51449;51.676;5.812;2023-04-09T02:49:23;102441.50;;;11.05;70.23
59104;BME280;51449;51.676;5.812;2023-04-09T02:51:55;102438.72;;;11.05;70.65
59104;BME280;51449;51.676;5.812;2023-04-09T02:54:26;102440.16;;;11.03;70.26
59104;BME280;51449;51.676;5.812;2023-04-09T02:56:58;102443.78;;;10.98;70.04
59104;BME280;51449;51.676;5.812;2023-04-09T02:59:30;102440.50;;;10.96;70.22
59104;BME280;51449;51.676;5.812;2023-04-09T03:02:03;102449.06;;;10.95;70.13
59104;BME280;51449;51.676;5.812;2023-04-09T03:04:35;102446.84;;;10.97;70.04
59104;BME280;51449;51.676;5.812;2023-04-09T03:07:07;102443.78;;;10.98;69.88
59104;BME280;51449;51.676;5.812;2023-04-09T03:09:38;102448.50;;;10.98;70.04
59104;BME280;51449;51.676;5.812;2023-04-09T03:12:10;102450.28;;;10.88;69.92
59104;BME280;51449;51.676;5.812;2023-04-09T03:14:42;102445.09;;;10.82;70.17
59104;BME280;51449;51.676;5.812;2023-04-09T03:17:14;102446.53;;;10.79;70.19
59104;BME280;51449;51.676;5.812;2023-04-09T03:19:46;102443.53;;;10.76;70.11
59104;BME280;51449;51.676;5.812;2023-04-09T03:22:19;102438.59;;;10.73;70.19
59104;BME280;51449;51.676;5.812;2023-04-09T03:24:55;102440.53;;;10.72;69.99
59104;BME280;51449;51.676;5.812;2023-04-09T03:27:26;102438.38;;;10.69;70.04
59104;BME280;51449;51.676;5.812;2023-04-09T03:30:00;102435.09;;;10.67;70.14
59104;BME280;51449;51.676;5.812;2023-04-09T03:32:39;102435.69;;;10.64;69.87
59104;BME280;51449;51.676;5.812;2023-04-09T03:35:13;102433.75;;;10.64;69.61
59104;BME280;51449;51.676;5.812;2023-04-09T03:37:46;102430.19;;;10.64;69.77
59104;BME280;51449;51.676;5.812;2023-04-09T03:40:21;102430.00;;;10.55;69.96
59104;BME280;51449;51.676;5.812;2023-04-09T03:42:53;102432.59;;;10.46;69.64
59104;BME280;51449;51.676;5.812;2023-04-09T03:45:24;102428.84;;;10.37;69.10
59104;BME280;51449;51.676;5.812;2023-04-09T03:47:59;102424.50;;;10.26;69.11
59104;BME280;51449;51.676;5.812;2023-04-09T03:50:37;102428.72;;;10.18;69.13
59104;BME280;51449;51.676;5.812;2023-04-09T03:53:15;102432.34;;;10.14;68.91
59104;BME280;51449;51.676;5.812;2023-04-09T03:55:48;102427.44;;;10.11;68.90
59104;BME280;51449;51.676;5.812;2023-04-09T03:58:26;102423.63;;;10.06;68.66
59104;BME280;51449;51.676;5.812;2023-04-09T04:00:58;102427.25;;;10.02;68.76
59104;BME280;51449;51.676;5.812;2023-04-09T04:03:38;102422.91;;;9.96;68.96
59104;BME280;51449;51.676;5.812;2023-04-09T04:06:32;102422.66;;;9.92;68.77
59104;BME280;51449;51.676;5.812;2023-04-09T04:09:35;102426.03;;;9.84;68.98
59104;BME280;51449;51.676;5.812;2023-04-09T04:12:12;102415.91;;;9.79;69.00
59104;BME280;51449;51.676;5.812;2023-04-09T04:14:54;102424.47;;;9.73;68.96
59104;BME280;51449;51.676;5.812;2023-04-09T04:17:36;102419.03;;;9.68;68.87
59104;BME280;51449;51.676;5.812;2023-04-09T04:20:15;102424.03;;;9.60;69.24
59104;BME280;51449;51.676;5.812;2023-04-09T04:22:58;102421.91;;;9.52;69.10
59104;BME280;51449;51.676;5.812;2023-04-09T04:25:31;102424.97;;;9.46;69.61
59104;BME280;51449;51.676;5.812;2023-04-09T04:28:04;102419.81;;;9.39;69.53
59104;BME280;51449;51.676;5.812;2023-04-09T04:30:42;102421.78;;;9.33;69.81
59104;BME280;51449;51.676;5.812;2023-04-09T04:33:14;102422.13;;;9.27;70.23
59104;BME280;51449;51.676;5.812;2023-04-09T04:36:11;102425.94;;;9.26;69.93
59104;BME280;51449;51.676;5.812;2023-04-09T04:38:48;102424.06;;;9.21;70.11
59104;BME280;51449;51.676;5.812;2023-04-09T04:41:29;102430.94;;;9.18;69.92
59104;BME280;51449;51.676;5.812;2023-04-09T04:44:11;102433.16;;;9.16;70.22
59104;BME280;51449;51.676;5.812;2023-04-09T04:46:44;102440.03;;;9.14;70.09
59104;BME280;51449;51.676;5.812;2023-04-09T04:49:16;102434.31;;;9.10;70.30
59104;BME280;51449;51.676;5.812;2023-04-09T04:51:50;102427.47;;;9.03;70.16
59104;BME280;51449;51.676;5.812;2023-04-09T04:54:22;102436.56;;;8.98;70.31
59104;BME280;51449;51.676;5.812;2023-04-09T04:56:58;102431.38;;;8.91;70.65
59104;BME280;51449;51.676;5.812;2023-04-09T04:59:40;102434.44;;;8.85;70.63
59104;BME280;51449;51.676;5.812;2023-04-09T05:02:14;102433.41;;;8.75;70.75
59104;BME280;51449;51.676;5.812;2023-04-09T05:05:01;102442.50;;;8.66;70.56
59104;BME280;51449;51.676;5.812;2023-04-09T05:07:48;102436.22;;;8.55;70.72
59104;BME280;51449;51.676;5.812;2023-04-09T05:10:20;102434.31;;;8.45;71.24
59104;BME280;51449;51.676;5.812;2023-04-09T05:12:52;102435.41;;;8.39;71.50
59104;BME280;51449;51.676;5.812;2023-04-09T05:15:31;102430.47;;;8.41;71.25
59104;BME280;51449;51.676;5.812;2023-04-09T05:18:04;102430.47;;;8.41;71.64
59104;BME280;51449;51.676;5.812;2023-04-09T05:20:36;102429.94;;;8.39;72.13
59104;BME280;51449;51.676;5.812;2023-04-09T05:23:12;102435.41;;;8.39;71.69
59104;BME280;51449;51.676;5.812;2023-04-09T05:25:49;102433.75;;;8.38;72.18
59104;BME280;51449;51.676;5.812;2023-04-09T05:28:39;102422.78;;;8.38;71.98
59104;BME280;51449;51.676;5.812;2023-04-09T05:31:21;102427.47;;;8.43;72.38
59104;BME280;51449;51.676;5.812;2023-04-09T05:34:00;102428.00;;;8.45;72.18
59104;BME280;51449;51.676;5.812;2023-04-09T05:36:40;102429.38;;;8.47;72.67
59104;BME280;51449;51.676;5.812;2023-04-09T05:39:12;102430.50;;;8.46;72.60
59104;BME280;51449;51.676;5.812;2023-04-09T05:41:44;102437.34;;;8.49;72.47
59104;BME280;51449;51.676;5.812;2023-04-09T05:44:39;102432.66;;;8.49;72.21
59104;BME280;51449;51.676;5.812;2023-04-09T05:47:19;102431.84;;;8.49;72.51
59104;BME280;51449;51.676;5.812;2023-04-09T05:50:12;102429.91;;;8.49;72.26
59104;BME280;51449;51.676;5.812;2023-04-09T05:52:45;102432.91;;;8.53;72.41
59104;BME280;51449;51.676;5.812;2023-04-09T05:55:18;102431.25;;;8.57;72.55
59104;BME280;51449;51.676;5.812;2023-04-09T05:57:55;102431.00;;;8.59;72.65
59104;BME280;51449;51.676;5.812;2023-04-09T06:00:27;102432.63;;;8.60;72.16
59104;BME280;51449;51.676;5.812;2023-04-09T06:03:00;102429.34;;;8.57;72.57
59104;BME280;51449;51.676;5.812;2023-04-09T06:05:35;102436.72;;;8.62;72.75
59104;BME280;51449;51.676;5.812;2023-04-09T06:08:09;102428.19;;;8.69;72.45
59104;BME280;51449;51.676;5.812;2023-04-09T06:10:45;102429.25;;;8.73;72.87
59104;BME280;51449;51.676;5.812;2023-04-09T06:13:20;102425.97;;;8.76;72.43
59104;BME280;51449;51.676;5.812;2023-04-09T06:15:52;102427.31;;;8.78;72.97
59104;BME280;51449;51.676;5.812;2023-04-09T06:18:24;102433.88;;;8.83;72.99
59104;BME280;51449;51.676;5.812;2023-04-09T06:21:03;102435.78;;;8.87;72.66
59104;BME280;51449;51.676;5.812;2023-04-09T06:23:37;102438.81;;;8.91;72.84
59104;BME280;51449;51.676;5.812;2023-04-09T06:26:08;102438.81;;;8.91;72.79
59104;BME280;51449;51.676;5.812;2023-04-09T06:28:40;102443.47;;;8.95;72.83
59104;BME280;51449;51.676;5.812;2023-04-09T06:31:12;102445.06;;;9.02;72.69
59104;BME280;51449;51.676;5.812;2023-04-09T06:33:44;102446.69;;;9.08;72.62
59104;BME280;51449;51.676;5.812;2023-04-09T06:36:16;102453.53;;;9.15;72.41
59104;BME280;51449;51.676;5.812;2023-04-09T06:38:48;102458.94;;;9.26;72.97
59104;BME280;51449;51.676;5.812;2023-04-09T06:41:23;102455.59;;;9.34;72.81
59104;BME280;51449;51.676;5.812;2023-04-09T06:43:57;102451.94;;;9.49;73.24
59104;BME280;51449;51.676;5.812;2023-04-09T06:46:29;102447.16;;;9.59;72.89
59104;BME280;51449;51.676;5.812;2023-04-09T06:49:04;102452.25;;;9.76;72.76
59104;BME280;51449;51.676;5.812;2023-04-09T06:51:36;102452.44;;;9.90;72.04
59104;BME280;51449;51.676;5.812;2023-04-09T06:54:08;102448.16;;;10.03;71.57
59104;BME280;51449;51.676;5.812;2023-04-09T06:56:40;102451.09;;;10.12;70.83
59104;BME280;51449;51.676;5.812;2023-04-09T06:59:11;102453.25;;;10.20;70.51
59104;BME280;51449;51.676;5.812;2023-04-09T07:01:43;102460.03;;;10.27;70.49
59104;BME280;51449;51.676;5.812;2023-04-09T07:04:16;102455.03;;;10.35;70.12
59104;BME280;51449;51.676;5.812;2023-04-09T07:06:49;102457.69;;;10.45;69.63
59104;BME280;51449;51.676;5.812;2023-04-09T07:09:23;102456.22;;;10.53;69.63
59104;BME280;51449;51.676;5.812;2023-04-09T07:11:55;102457.22;;;10.62;69.36
59104;BME280;51449;51.676;5.812;2023-04-09T07:14:26;102455.81;;;10.64;68.84
59104;BME280;51449;51.676;5.812;2023-04-09T07:16:59;102463.66;;;10.76;68.97
59104;BME280;51449;51.676;5.812;2023-04-09T07:19:32;102457.72;;;10.88;68.88
59104;BME280;51449;51.676;5.812;2023-04-09T07:22:03;102461.41;;;11.02;68.81
59104;BME280;51449;51.676;5.812;2023-04-09T07:24:35;102459.53;;;11.17;68.55
59104;BME280;51449;51.676;5.812;2023-04-09T07:27:07;102459.97;;;11.24;68.25
59104;BME280;51449;51.676;5.812;2023-04-09T07:29:43;102451.03;;;11.32;67.70
59104;BME280;51449;51.676;5.812;2023-04-09T07:32:15;102450.59;;;11.44;67.99
59104;BME280;51449;51.676;5.812;2023-04-09T07:34:47;102459.16;;;11.61;67.87
59104;BME280;51449;51.676;5.812;2023-04-09T07:37:21;102457.31;;;11.70;67.30
59104;BME280;51449;51.676;5.812;2023-04-09T07:39:53;102461.38;;;11.78;66.99
59104;BME280;51449;51.676;5.812;2023-04-09T07:42:26;102454.03;;;11.87;66.69
59104;BME280;51449;51.676;5.812;2023-04-09T07:44:58;102457.13;;;11.99;66.20
59104;BME280;51449;51.676;5.812;2023-04-09T07:47:31;102455.31;;;12.09;66.03
59104;BME280;51449;51.676;5.812;2023-04-09T07:50:04;102451.88;;;12.17;65.25
59104;BME280;51449;51.676;5.812;2023-04-09T07:52:37;102452.28;;;12.24;65.01
59104;BME280;51449;51.676;5.812;2023-04-09T07:55:09;102453.81;;;12.30;64.24
59104;BME280;51449;51.676;5.812;2023-04-09T07:57:41;102451.28;;;12.34;64.09
59104;BME280;51449;51.676;5.812;2023-04-09T08:00:14;102452.19;;;12.43;64.45
59104;BME280;51449;51.676;5.812;2023-04-09T08:02:47;102450.88;;;12.54;64.38
59104;BME280;51449;51.676;5.812;2023-04-09T08:05:20;102452.09;;;12.62;63.22
59104;BME280;51449;51.676;5.812;2023-04-09T08:07:52;102452.78;;;12.68;62.76
59104;BME280;51449;51.676;5.812;2023-04-09T08:10:25;102448.59;;;12.70;62.01
59104;BME280;51449;51.676;5.812;2023-04-09T08:12:57;102449.91;;;12.73;61.54
59104;BME280;51449;51.676;5.812;2023-04-09T08:15:31;102455.38;;;12.78;61.80
59104;BME280;51449;51.676;5.812;2023-04-09T08:18:05;102451.66;;;12.82;61.70
59104;BME280;51449;51.676;5.812;2023-04-09T08:20:38;102456.06;;;12.97;61.92
59104;BME280;51449;51.676;5.812;2023-04-09T08:23:16;102453.88;;;13.08;61.88
59104;BME280;51449;51.676;5.812;2023-04-09T08:25:49;102453.53;;;13.23;61.53
59104;BME280;51449;51.676;5.812;2023-04-09T08:28:21;102446.16;;;13.33;60.62
59104;BME280;51449;51.676;5.812;2023-04-09T08:30:54;102454.22;;;13.43;60.22
59104;BME280;51449;51.676;5.812;2023-04-09T08:33:26;102454.81;;;13.54;60.52
59104;BME280;51449;51.676;5.812;2023-04-09T08:35:59;102455.38;;;13.64;59.83
59104;BME280;51449;51.676;5.812;2023-04-09T08:38:34;102454.28;;;13.74;59.39
59104;BME280;51449;51.676;5.812;2023-04-09T08:41:06;102447.16;;;13.82;58.48
59104;BME280;51449;51.676;5.812;2023-04-09T08:43:38;102454.41;;;13.91;58.55
59104;BME280;51449;51.676;5.812;2023-04-09T08:46:28;102442.91;;;14.07;58.05
59104;BME280;51449;51.676;5.812;2023-04-09T08:49:02;102458.44;;;14.17;57.04
59104;BME280;51449;51.676;5.812;2023-04-09T08:51:34;102447.91;;;14.27;57.05
59104;BME280;51449;51.676;5.812;2023-04-09T08:54:07;102449.59;;;14.37;55.61
59104;BME280;51449;51.676;5.812;2023-04-09T08:56:39;102450.44;;;14.46;55.36
59104;BME280;51449;51.676;5.812;2023-04-09T08:59:15;102445.75;;;14.55;54.76
59104;BME280;51449;51.676;5.812;2023-04-09T09:02:05;102446.31;;;14.66;53.69
59104;BME280;51449;51.676;5.812;2023-04-09T09:04:47;102443.53;;;14.75;53.38
59104;BME280;51449;51.676;5.812;2023-04-09T09:07:21;102433.63;;;14.83;53.05
59104;BME280;51449;51.676;5.812;2023-04-09T09:09:55;102432.00;;;14.90;53.19
59104;BME280;51449;51.676;5.812;2023-04-09T09:12:41;102424.16;;;15.01;52.64
59104;BME280;51449;51.676;5.812;2023-04-09T09:17:59;102430.88;;;15.26;53.30
59104;BME280;51449;51.676;5.812;2023-04-09T09:20:32;102424.84;;;15.41;52.96
59104;BME280;51449;51.676;5.812;2023-04-09T09:23:05;102424.66;;;15.55;52.71
59104;BME280;51449;51.676;5.812;2023-04-09T09:25:40;102419.59;;;15.66;51.85
59104;BME280;51449;51.676;5.812;2023-04-09T09:28:13;102423.03;;;15.80;51.04
59104;BME280;51449;51.676;5.812;2023-04-09T09:30:45;102419.88;;;15.82;50.99
59104;BME280;51449;51.676;5.812;2023-04-09T09:33:20;102418.72;;;15.92;51.35
59104;BME280;51449;51.676;5.812;2023-04-09T09:35:53;102410.06;;;15.93;49.91
59104;BME280;51449;51.676;5.812;2023-04-09T09:38:25;102402.84;;;16.01;49.93
59104;BME280;51449;51.676;5.812;2023-04-09T09:40:58;102407.84;;;16.16;50.42
59104;BME280;51449;51.676;5.812;2023-04-09T09:43:46;102409.59;;;16.30;49.66
59104;BME280;51449;51.676;5.812;2023-04-09T09:46:20;102407.25;;;16.40;48.80
59104;BME280;51449;51.676;5.812;2023-04-09T09:48:53;102405.25;;;16.50;48.80
59104;BME280;51449;51.676;5.812;2023-04-09T09:51:25;102402.88;;;16.60;47.88
59104;BME280;51449;51.676;5.812;2023-04-09T09:53:59;102411.50;;;16.67;47.13
59104;BME280;51449;51.676;5.812;2023-04-09T09:56:37;102398.88;;;16.70;46.71
59104;BME280;51449;51.676;5.812;2023-04-09T09:59:20;102395.41;;;16.82;46.95
59104;BME280;51449;51.676;5.812;2023-04-09T10:02:04;102400.72;;;16.96;47.53
59104;BME280;51449;51.676;5.812;2023-04-09T10:04:38;102393.59;;;17.07;47.45
59104;BME280;51449;51.676;5.812;2023-04-09T10:07:12;102390.63;;;17.12;46.16
59104;BME280;51449;51.676;5.812;2023-04-09T10:09:48;102384.00;;;17.17;46.17
59104;BME280;51449;51.676;5.812;2023-04-09T10:12:22;102381.97;;;17.26;46.71
59104;BME280;51449;51.676;5.812;2023-04-09T10:14:56;102376.44;;;17.38;45.92
59104;BME280;51449;51.676;5.812;2023-04-09T10:17:35;102375.72;;;17.29;44.86
59104;BME280;51449;51.676;5.812;2023-04-09T10:20:14;102377.34;;;17.30;44.18
59104;BME280;51449;51.676;5.812;2023-04-09T10:22:53;102375.03;;;17.32;44.10
59104;BME280;51449;51.676;5.812;2023-04-09T10:25:27;102381.78;;;17.43;44.48
59104;BME280;51449;51.676;5.812;2023-04-09T10:28:00;102374.84;;;17.49;43.12
59104;BME280;51449;51.676;5.812;2023-04-09T10:30:35;102378.44;;;17.50;42.64
59104;BME280;51449;51.676;5.812;2023-04-09T10:33:21;102371.31;;;17.61;42.86
59104;BME280;51449;51.676;5.812;2023-04-09T10:36:09;102364.31;;;17.67;42.89
59104;BME280;51449;51.676;5.812;2023-04-09T10:38:45;102367.47;;;17.66;41.72
59104;BME280;51449;51.676;5.812;2023-04-09T10:41:28;102365.13;;;17.68;41.81
59104;BME280;51449;51.676;5.812;2023-04-09T10:44:05;102360.88;;;17.70;40.81
59104;BME280;51449;51.676;5.812;2023-04-09T10:46:38;102358.66;;;17.76;41.67
59104;BME280;51449;51.676;5.812;2023-04-09T10:49:22;102354.19;;;17.84;42.10
59104;BME280;51449;51.676;5.812;2023-04-09T10:52:08;102348.72;;;17.87;41.30
59104;BME280;51449;51.676;5.812;2023-04-09T10:54:44;102347.09;;;17.99;41.40
59104;BME280;51449;51.676;5.812;2023-04-09T10:57:19;102340.81;;;18.14;42.14
59104;BME280;51449;51.676;5.812;2023-04-09T10:59:54;102340.81;;;18.26;41.51
59104;BME280;51449;51.676;5.812;2023-04-09T11:05:34;102350.84;;;18.39;40.77
59104;BME280;51449;51.676;5.812;2023-04-09T11:08:11;102345.81;;;18.45;40.77
59104;BME280;51449;51.676;5.812;2023-04-09T11:10:44;102343.16;;;18.49;40.22
59104;BME280;51449;51.676;5.812;2023-04-09T11:13:21;102333.13;;;18.48;40.04
59104;BME280;51449;51.676;5.812;2023-04-09T11:15:55;102327.56;;;18.48;39.91
59104;BME280;51449;51.676;5.812;2023-04-09T11:18:29;102331.75;;;18.54;40.08
59104;BME280;51449;51.676;5.812;2023-04-09T11:21:02;102324.50;;;18.53;38.98
59104;BME280;51449;51.676;5.812;2023-04-09T11:23:35;102322.13;;;18.39;38.74
59104;BME280;51449;51.676;5.812;2023-04-09T11:26:08;102324.22;;;18.30;38.61
59104;BME280;51449;51.676;5.812;2023-04-09T11:28:42;102320.03;;;18.24;38.92
59104;BME280;51449;51.676;5.812;2023-04-09T11:31:14;102325.72;;;18.27;38.98
59104;BME280;51449;51.676;5.812;2023-04-09T11:33:45;102307.56;;;18.33;38.88
59104;BME280;51449;51.676;5.812;2023-04-09T11:36:17;102312.56;;;18.40;38.92
59104;BME280;51449;51.676;5.812;2023-04-09T11:38:49;102312.78;;;18.47;38.76
59104;BME280;51449;51.676;5.812;2023-04-09T11:41:35;102310.13;;;18.51;39.15
59104;BME280;51449;51.676;5.812;2023-04-09T11:44:08;102315.25;;;18.49;37.26
59104;BME280;51449;51.676;5.812;2023-04-09T11:46:40;102319.78;;;18.41;38.05
59104;BME280;51449;51.676;5.812;2023-04-09T11:49:13;102319.88;;;18.45;39.14
59104;BME280;51449;51.676;5.812;2023-04-09T11:51:46;102319.97;;;18.60;39.61
59104;BME280;51449;51.676;5.812;2023-04-09T11:54:18;102314.16;;;18.78;39.89
59104;BME280;51449;51.676;5.812;2023-04-09T11:56:50;102313.53;;;18.85;38.98
59104;BME280;51449;51.676;5.812;2023-04-09T11:59:28;102314.47;;;18.89;38.82
59104;BME280;51449;51.676;5.812;2023-04-09T12:02:01;102311.88;;;18.96;39.03
59104;BME280;51449;51.676;5.812;2023-04-09T12:04:37;102310.41;;;18.86;37.78
59104;BME280;51449;51.676;5.812;2023-04-09T12:07:20;102305.53;;;18.71;37.57
59104;BME280;51449;51.676;5.812;2023-04-09T12:09:52;102305.19;;;18.60;38.00
59104;BME280;51449;51.676;5.812;2023-04-09T12:12:25;102302.81;;;18.46;37.95
59104;BME280;51449;51.676;5.812;2023-04-09T12:14:57;102303.84;;;18.42;38.11
59104;BME280;51449;51.676;5.812;2023-04-09T12:17:30;102305.47;;;18.43;38.36
59104;BME280;51449;51.676;5.812;2023-04-09T12:20:07;102306.28;;;18.31;38.52
59104;BME280;51449;51.676;5.812;2023-04-09T12:22:40;102307.59;;;18.09;38.95
59104;BME280;51449;51.676;5.812;2023-04-09T12:25:12;102306.78;;;18.08;39.83
59104;BME280;51449;51.676;5.812;2023-04-09T12:27:43;102302.47;;;18.23;39.22
59104;BME280;51449;51.676;5.812;2023-04-09T12:30:15;102302.81;;;18.34;38.88
59104;BME280;51449;51.676;5.812;2023-04-09T12:32:47;102297.69;;;18.36;39.19
59104;BME280;51449;51.676;5.812;2023-04-09T12:35:20;102290.84;;;18.21;39.33
59104;BME280;51449;51.676;5.812;2023-04-09T12:37:52;102300.88;;;18.10;39.83
59104;BME280;51449;51.676;5.812;2023-04-09T12:40:24;102295.84;;;18.15;40.32
59104;BME280;51449;51.676;5.812;2023-04-09T12:42:56;102292.50;;;18.10;39.78
59104;BME280;51449;51.676;5.812;2023-04-09T12:45:28;102290.28;;;18.03;39.64
59104;BME280;51449;51.676;5.812;2023-04-09T12:48:00;102290.84;;;18.21;39.81
59104;BME280;51449;51.676;5.812;2023-04-09T12:50:32;102292.72;;;18.17;39.06
59104;BME280;51449;51.676;5.812;2023-04-09T12:53:07;102290.53;;;17.98;39.34
59104;BME280;51449;51.676;5.812;2023-04-09T12:55:39;102290.84;;;17.84;39.65
59104;BME280;51449;51.676;5.812;2023-04-09T12:58:14;102285.97;;;17.81;39.99
59104;BME280;51449;51.676;5.812;2023-04-09T13:00:46;102286.94;;;17.85;39.85
59104;BME280;51449;51.676;5.812;2023-04-09T13:03:18;102279.03;;;18.00;39.50
59104;BME280;51449;51.676;5.812;2023-04-09T13:05:51;102285.75;;;17.99;39.69
59104;BME280;51449;51.676;5.812;2023-04-09T13:08:25;102288.44;;;18.07;39.85
59104;BME280;51449;51.676;5.812;2023-04-09T13:10:57;102292.25;;;18.27;40.00
59104;BME280;51449;51.676;5.812;2023-04-09T13:13:28;102284.31;;;18.42;38.92
59104;BME280;51449;51.676;5.812;2023-04-09T13:16:00;102281.25;;;18.59;39.56
59104;BME280;51449;51.676;5.812;2023-04-09T13:18:32;102272.28;;;18.78;39.91
59104;BME280;51449;51.676;5.812;2023-04-09T13:21:04;102272.75;;;18.96;39.47
59104;BME280;51449;51.676;5.812;2023-04-09T13:23:36;102278.03;;;19.13;39.67
59104;BME280;51449;51.676;5.812;2023-04-09T13:26:07;102272.63;;;19.20;38.26
59104;BME280;51449;51.676;5.812;2023-04-09T13:28:39;102258.13;;;19.15;38.40
59104;BME280;51449;51.676;5.812;2023-04-09T13:31:11;102268.72;;;18.93;38.63
59104;BME280;51449;51.676;5.812;2023-04-09T13:33:44;102265.44;;;18.91;37.74
59104;BME280;51449;51.676;5.812;2023-04-09T13:36:16;102264.72;;;18.94;38.28
59104;BME280;51449;51.676;5.812;2023-04-09T13:38:48;102261.19;;;18.81;38.49
59104;BME280;51449;51.676;5.812;2023-04-09T13:41:20;102265.59;;;18.70;38.40
59104;BME280;51449;51.676;5.812;2023-04-09T13:43:58;102273.72;;;18.47;37.77